Time;durP1;ratioP1;P1;durP2;ratioP2;P2;SDS_P1;SDS_P2;PMS_P1;PMS_P2;Temp;Humidity;BMP_temperature;BMP_pressure;BME280_temperature;BME280_humidity;BME280_pressure;Samples;Min_cycle;Max_cycle;Signal;HPM_P1;HPM_P2
2022/04/04 00:00:45;;;;;;;28.00;15.38;;;;;;;0.05;67.08;99574.28;5158855;28;20517;-71
2022/04/04 00:03:35;;;;;;;26.15;14.55;;;;;;;-0.11;65.60;99553.22;5157578;28;20050;-71
2022/04/04 00:06:28;;;;;;;32.78;16.13;;;;;;;0.01;66.59;99568.34;5161353;28;20053;-71
2022/04/04 00:09:18;;;;;;;32.30;17.48;;;;;;;0.06;67.95;99561.16;5160732;28;20485;-71
2022/04/04 00:12:09;;;;;;;31.52;16.05;;;;;;;0.15;67.70;99565.16;5160594;28;20520;-71
2022/04/04 00:14:59;;;;;;;29.60;15.35;;;;;;;-0.06;66.93;99562.53;5158997;28;20050;-71
2022/04/04 00:17:49;;;;;;;30.38;15.15;;;;;;;-0.02;66.20;99564.09;5161340;28;20476;-71
2022/04/04 00:20:40;;;;;;;30.95;16.08;;;;;;;-0.11;66.86;99564.47;5157938;28;20058;-71
2022/04/04 00:23:31;;;;;;;33.45;15.90;;;;;;;-0.14;66.49;99575.03;5159928;28;20074;-70
2022/04/04 00:26:21;;;;;;;30.40;15.73;;;;;;;-0.13;67.62;99568.06;5143929;28;21069;-70
2022/04/04 00:29:12;;;;;;;30.45;16.67;;;;;;;0.14;67.17;99571.31;5161357;28;20065;-70
2022/04/04 00:32:02;;;;;;;31.75;16.30;;;;;;;0.13;67.73;99561.75;5160396;28;20065;-70
2022/04/04 00:34:52;;;;;;;32.30;17.25;;;;;;;-0.04;68.04;99547.66;5160410;28;20053;-70
2022/04/04 00:37:43;;;;;;;30.38;15.57;;;;;;;-0.16;66.84;99549.97;5152641;28;20054;-70
2022/04/04 00:40:34;;;;;;;31.55;15.75;;;;;;;-0.12;66.46;99560.19;5161218;28;20053;-70
2022/04/04 00:43:24;;;;;;;27.63;14.85;;;;;;;-0.32;67.33;99540.16;5165884;28;20057;-70
2022/04/04 00:46:14;;;;;;;29.15;16.02;;;;;;;-0.24;66.70;99555.47;5161698;28;20121;-70
2022/04/04 00:49:05;;;;;;;30.08;15.18;;;;;;;-0.35;66.31;99542.88;5164150;28;20050;-70
2022/04/04 00:51:55;;;;;;;30.40;16.17;;;;;;;-0.26;66.17;99568.56;5160446;28;20073;-70
2022/04/04 00:54:46;;;;;;;29.63;14.90;;;;;;;-0.36;65.95;99562.03;5150240;28;20046;-70
2022/04/04 00:57:37;;;;;;;28.83;16.10;;;;;;;-0.35;66.50;99555.91;5163853;28;20043;-70
2022/04/04 01:00:29;;;;;;;30.05;17.75;;;;;;;-0.15;68.28;99557.69;5163600;28;20054;-70
2022/04/04 01:03:19;;;;;;;29.08;16.00;;;;;;;-0.24;67.21;99560.66;5148936;28;20050;-70
2022/04/04 01:06:10;;;;;;;29.70;15.75;;;;;;;-0.48;67.51;99544.28;5163903;28;20084;-70
2022/04/04 01:09:02;;;;;;;31.48;15.45;;;;;;;-0.44;66.77;99555.41;5151910;28;20058;-70
2022/04/04 01:12:07;;;;;;;35.30;18.23;;;;;;;-0.03;68.30;99551.16;5147032;28;20061;-70
2022/04/04 01:14:57;;;;;;;33.63;18.95;;;;;;;0.90;66.04;99554.06;5160028;28;20043;-70
2022/04/04 01:17:47;;;;;;;40.83;19.63;;;;;;;0.78;67.08;99559.84;5163197;28;20053;-70
2022/04/04 01:20:38;;;;;;;32.80;16.95;;;;;;;0.15;66.85;99552.13;5162133;28;20061;-70
2022/04/04 01:23:35;;;;;;;30.13;16.42;;;;;;;-0.07;67.24;99541.72;5164885;28;20048;-70
2022/04/04 01:26:25;;;;;;;29.27;15.48;;;;;;;-0.08;67.28;99547.88;5159131;28;20046;-70
2022/04/04 01:29:16;;;;;;;34.92;16.48;;;;;;;-0.17;66.52;99546.47;5163881;28;20556;-70
2022/04/04 01:32:07;;;;;;;28.10;15.65;;;;;;;-0.30;66.03;99533.13;5163407;28;20061;-70
2022/04/04 01:34:58;;;;;;;31.10;15.88;;;;;;;-0.37;65.76;99534.25;5162865;28;20527;-70
2022/04/04 01:37:49;;;;;;;32.83;16.20;;;;;;;-0.48;66.50;99528.66;5159019;28;20125;-69
2022/04/04 01:40:39;;;;;;;30.88;15.90;;;;;;;-0.52;66.01;99521.88;5161831;28;20061;-69
2022/04/04 01:43:30;;;;;;;29.60;15.20;;;;;;;-0.54;66.22;99523.69;5143922;28;20539;-71
2022/04/04 01:46:29;;;;;;;30.65;15.57;;;;;;;-0.56;65.75;99522.91;5161748;28;20141;-73
2022/04/04 01:49:20;;;;;;;41.63;17.65;;;;;;;-0.69;66.43;99501.72;5162933;28;20074;-70
2022/04/04 01:52:10;;;;;;;31.60;15.85;;;;;;;-0.66;66.15;99525.03;5157510;28;20064;-69
2022/04/04 01:55:00;;;;;;;34.17;17.60;;;;;;;-0.79;66.20;99495.16;5162696;28;20050;-71
2022/04/04 01:57:51;;;;;;;32.83;17.08;;;;;;;-0.68;66.84;99516.41;5149174;28;20563;-71
2022/04/04 02:00:42;;;;;;;36.78;17.33;;;;;;;-0.74;66.91;99508.84;5161591;28;20050;-70
2022/04/04 02:03:32;;;;;;;31.52;16.63;;;;;;;-0.75;66.64;99512.34;5149842;28;20261;-70
2022/04/04 02:06:23;;;;;;;30.73;15.98;;;;;;;-0.82;66.11;99513.50;5162591;28;20050;-69
2022/04/04 02:09:13;;;;;;;32.40;15.90;;;;;;;-0.88;65.78;99495.53;5164138;28;20049;-71
2022/04/04 02:12:05;;;;;;;32.70;16.75;;;;;;;-0.80;66.04;99501.25;5165470;28;20418;-70
2022/04/04 02:14:55;;;;;;;35.38;16.85;;;;;;;-0.81;67.84;99496.97;5158451;28;20053;-69
2022/04/04 02:17:45;;;;;;;31.10;15.88;;;;;;;-0.86;66.57;99488.47;5150408;28;20049;-69
2022/04/04 02:20:35;;;;;;;33.92;16.70;;;;;;;-0.76;67.17;99490.69;5160513;28;20144;-70
2022/04/04 02:23:27;;;;;;;32.20;16.48;;;;;;;-0.77;67.17;99490.72;5157479;28;20061;-72
2022/04/04 02:26:17;;;;;;;30.17;14.80;;;;;;;-0.93;67.51;99482.66;5161852;28;20061;-72
2022/04/04 02:29:07;;;;;;;35.80;16.27;;;;;;;-1.00;67.32;99489.03;5156345;28;20065;-70
2022/04/04 02:31:58;;;;;;;34.88;16.13;;;;;;;-0.91;67.08;99493.03;5158286;28;20061;-69
2022/04/04 02:34:49;;;;;;;28.85;16.08;;;;;;;-0.87;67.75;99482.44;5163118;28;20042;-69
2022/04/04 02:37:40;;;;;;;30.00;15.98;;;;;;;-0.95;67.34;99484.50;5147306;28;20066;-69
2022/04/04 02:40:31;;;;;;;29.05;15.38;;;;;;;-1.01;67.23;99482.13;5162561;28;20058;-69
2022/04/04 02:43:22;;;;;;;30.08;16.08;;;;;;;-0.99;67.71;99475.13;5160609;28;20050;-70
2022/04/04 02:46:14;;;;;;;31.02;16.10;;;;;;;-1.12;67.03;99464.34;5158668;28;20058;-69
2022/04/04 02:49:05;;;;;;;28.08;15.35;;;;;;;-1.11;67.97;99459.97;5160431;28;20050;-70
2022/04/04 02:51:57;;;;;;;32.40;16.20;;;;;;;-1.05;67.75;99471.00;5163874;28;20133;-70
2022/04/04 02:54:47;;;;;;;34.35;16.30;;;;;;;-0.95;68.88;99474.94;5143336;28;20074;-69
2022/04/04 02:57:38;;;;;;;30.17;15.48;;;;;;;-1.04;68.29;99467.47;5157473;28;20050;-71
2022/04/04 03:00:28;;;;;;;32.45;16.25;;;;;;;-1.13;68.23;99454.81;5161801;28;20426;-71
2022/04/04 03:03:19;;;;;;;29.77;16.23;;;;;;;-1.04;68.44;99472.69;5143308;28;20053;-70
2022/04/04 03:06:10;;;;;;;35.90;16.77;;;;;;;-1.10;68.04;99461.66;5161521;28;20073;-69
2022/04/04 03:09:00;;;;;;;30.48;16.25;;;;;;;-1.00;68.02;99473.41;5165749;28;20047;-71
2022/04/04 03:11:50;;;;;;;34.33;17.65;;;;;;;-0.91;68.11;99475.66;5160159;28;20524;-68
2022/04/04 03:14:41;;;;;;;34.22;16.70;;;;;;;-1.02;68.25;99470.88;5147904;28;20053;-70
2022/04/04 03:17:31;;;;;;;36.08;16.88;;;;;;;-1.07;68.34;99477.16;5144432;28;20514;-71
2022/04/04 03:20:24;;;;;;;31.70;16.25;;;;;;;-1.10;67.73;99472.06;5162155;28;20457;-72
2022/04/04 03:23:14;;;;;;;31.38;15.38;;;;;;;-1.30;68.53;99450.25;5158797;28;20516;-71
2022/04/04 03:26:04;;;;;;;33.22;16.58;;;;;;;-1.26;67.76;99456.19;5155713;28;20066;-71
2022/04/04 03:28:55;;;;;;;29.88;15.57;;;;;;;-1.17;68.08;99468.84;5163304;28;20083;-71
2022/04/04 03:31:45;;;;;;;33.03;16.05;;;;;;;-1.19;68.00;99468.94;5159725;28;20057;-72
2022/04/04 03:34:36;;;;;;;34.90;17.08;;;;;;;-1.20;68.61;99463.75;5160227;28;20088;-72
2022/04/04 03:37:27;;;;;;;34.20;17.30;;;;;;;-1.19;67.64;99463.72;5158556;28;20193;-72
2022/04/04 03:40:19;;;;;;;35.78;17.45;;;;;;;-1.26;67.99;99461.38;5165531;28;20069;-69
2022/04/04 03:43:09;;;;;;;38.13;17.73;;;;;;;-1.34;67.18;99447.84;5158010;28;20061;-69
2022/04/04 03:45:59;;;;;;;45.15;20.58;;;;;;;-1.36;68.17;99449.63;5154842;28;20085;-69
2022/04/04 03:48:50;;;;;;;48.65;21.88;;;;;;;-1.08;68.55;99470.25;5141605;28;20061;-70
2022/04/04 03:51:40;;;;;;;44.40;20.77;;;;;;;-1.23;69.26;99453.47;5157461;28;20058;-71
2022/04/04 03:54:31;;;;;;;37.78;18.00;;;;;;;-1.21;69.09;99475.94;5166536;28;20136;-69
2022/04/04 03:57:22;;;;;;;37.83;18.63;;;;;;;-1.27;68.81;99473.56;5162374;28;20054;-71
2022/04/04 04:00:12;;;;;;;38.60;17.77;;;;;;;-1.33;68.21;99470.34;5159038;28;20189;-70
2022/04/04 04:03:02;;;;;;;32.78;16.92;;;;;;;-1.50;68.06;99434.56;5157507;28;20640;-71
2022/04/04 04:06:11;;;;;;;36.65;19.45;;;;;;;-1.37;68.65;99458.34;5162643;28;20484;-70
2022/04/04 04:09:01;;;;;;;41.13;20.20;;;;;;;-1.11;69.43;99458.22;5159132;28;20141;-71
2022/04/04 04:11:54;;;;;;;35.00;19.60;;;;;;;-1.16;68.56;99447.13;5159260;28;20595;-71
2022/04/04 04:14:45;;;;;;;37.45;20.33;;;;;;;-1.02;68.80;99437.03;5159722;28;20055;-71
2022/04/04 04:17:36;;;;;;;41.60;20.95;;;;;;;-0.68;68.93;99453.91;5162628;28;20049;-71
2022/04/04 04:20:29;;;;;;;46.28;21.83;;;;;;;-0.56;68.25;99452.59;5159528;28;20200;-71
2022/04/04 04:23:20;;;;;;;51.50;22.67;;;;;;;-0.66;69.27;99441.69;5168412;28;20053;-71
2022/04/04 04:26:13;;;;;;;41.67;20.67;;;;;;;-0.66;68.82;99436.47;5160266;28;20060;-71
2022/04/04 04:29:04;;;;;;;43.47;21.65;;;;;;;-0.38;68.09;99448.34;5150649;28;20526;-71
2022/04/04 04:31:55;;;;;;;43.80;21.02;;;;;;;-0.42;67.60;99450.25;5149798;28;20545;-71
2022/04/04 04:34:48;;;;;;;47.70;21.25;;;;;;;-0.37;68.06;99444.84;5164634;28;20516;-71
2022/04/04 04:37:39;;;;;;;39.88;20.02;;;;;;;-0.23;67.17;99445.13;5162994;28;20058;-71
2022/04/04 04:40:29;;;;;;;46.17;20.02;;;;;;;-0.42;67.88;99425.97;5174642;28;20428;-70
2022/04/04 04:43:20;;;;;;;41.45;20.88;;;;;;;-0.14;67.13;99436.03;5165062;28;20730;-70
2022/04/04 04:46:11;;;;;;;39.50;19.20;;;;;;;0.10;66.21;99435.00;5161742;28;20066;-70
2022/04/04 04:49:01;;;;;;;45.72;20.20;;;;;;;0.01;66.39;99437.16;5160509;28;20069;-69
2022/04/04 04:51:53;;;;;;;46.05;21.58;;;;;;;0.25;65.14;99443.88;5159180;28;20065;-68
2022/04/04 04:54:43;;;;;;;44.72;20.23;;;;;;;-0.18;66.82;99443.16;5163387;28;20046;-68
2022/04/04 04:57:33;;;;;;;36.45;18.88;;;;;;;-0.09;66.22;99429.72;5163233;28;20054;-69
2022/04/04 05:00:26;;;;;;;41.22;19.33;;;;;;;0.33;65.10;99436.59;5164681;28;20050;-68
2022/04/04 05:03:25;;;;;;;41.50;20.35;;;;;;;-0.16;65.71;99430.06;5147904;28;20085;-69
2022/04/04 05:06:16;;;;;;;43.58;19.95;;;;;;;0.10;66.02;99434.13;5165470;28;20054;-70
2022/04/04 05:09:07;;;;;;;44.85;20.80;;;;;;;0.08;65.19;99428.16;5174180;28;20056;-69
2022/04/04 05:11:57;;;;;;;36.13;19.25;;;;;;;-0.37;66.75;99416.16;5163952;28;20155;-70
2022/04/04 05:14:48;;;;;;;41.20;20.30;;;;;;;-0.31;67.43;99419.38;5149864;28;20117;-68
2022/04/04 05:17:38;;;;;;;42.10;20.38;;;;;;;-0.10;65.21;99415.00;5162541;28;20650;-69
2022/04/04 05:20:29;;;;;;;44.50;21.40;;;;;;;-0.23;66.63;99426.88;5161862;28;20058;-69
2022/04/04 05:23:19;;;;;;;35.75;19.38;;;;;;;-0.09;65.28;99427.13;5160814;28;20054;-68
2022/04/04 05:26:10;;;;;;;43.45;18.85;;;;;;;-0.42;65.81;99425.97;5161471;28;20046;-69
2022/04/04 05:29:01;;;;;;;39.35;18.83;;;;;;;-0.48;66.96;99433.09;5146128;28;20451;-69
2022/04/04 05:31:55;;;;;;;40.65;19.33;;;;;;;-0.05;64.95;99433.88;5168165;28;20042;-69
2022/04/04 05:34:45;;;;;;;41.05;19.67;;;;;;;-0.39;66.34;99431.03;5173904;28;20053;-70
2022/04/04 05:37:35;;;;;;;39.60;18.45;;;;;;;-0.50;65.54;99432.34;5162556;28;20065;-70
2022/04/04 05:40:25;;;;;;;37.13;18.08;;;;;;;-0.22;66.21;99430.31;5162107;28;20050;-70
2022/04/04 05:43:17;;;;;;;42.00;19.98;;;;;;;-0.47;67.12;99444.38;5164670;28;20448;-70
2022/04/04 05:46:09;;;;;;;41.28;19.23;;;;;;;-0.04;64.91;99435.56;5149168;28;20051;-70
2022/04/04 05:49:00;;;;;;;40.25;19.63;;;;;;;-0.28;66.35;99421.00;5152613;28;20050;-71
2022/04/04 05:51:51;;;;;;;42.53;19.00;;;;;;;-0.31;65.47;99432.38;5146328;28;20082;-71
2022/04/04 05:54:54;;;;;;;36.78;18.75;;;;;;;-0.03;65.63;99437.28;5162864;28;20064;-70
2022/04/04 05:57:45;;;;;;;37.65;19.52;;;;;;;-0.25;66.21;99431.28;5166983;28;20184;-69
2022/04/04 06:00:36;;;;;;;38.90;18.45;;;;;;;-0.14;66.28;99434.28;5164757;28;20056;-70
2022/04/04 06:03:25;;;;;;;36.60;18.48;;;;;;;0.02;65.54;99431.03;5165764;28;20509;-70
2022/04/04 06:06:16;;;;;;;35.10;18.67;;;;;;;-0.32;65.81;99393.38;5140375;28;20050;-70
2022/04/04 06:09:06;;;;;;;38.53;20.00;;;;;;;0.32;64.86;99426.22;5161410;28;20050;-69
2022/04/04 06:11:56;;;;;;;40.58;19.90;;;;;;;0.10;65.56;99427.19;5160841;28;20056;-70
2022/04/04 06:14:47;;;;;;;38.35;20.05;;;;;;;-0.04;64.25;99386.03;5168941;28;20128;-70
2022/04/04 06:17:38;;;;;;;39.20;19.20;;;;;;;0.13;65.53;99434.88;5149312;28;20058;-69
2022/04/04 06:20:29;;;;;;;41.47;19.92;;;;;;;0.29;64.94;99423.72;5150392;28;20501;-69
2022/04/04 06:23:19;;;;;;;37.03;19.67;;;;;;;0.70;64.71;99432.31;5161203;28;20463;-69
2022/04/04 06:26:12;;;;;;;66.85;29.65;;;;;;;0.52;64.55;99420.94;5157258;28;20054;-69
2022/04/04 06:29:03;;;;;;;41.92;19.63;;;;;;;0.93;63.20;99426.84;5162214;28;20104;-69
2022/04/04 06:31:53;;;;;;;35.80;19.48;;;;;;;1.39;61.51;99424.63;5164941;28;20054;-69
2022/04/04 06:34:44;;;;;;;35.33;19.17;;;;;;;1.19;61.92;99398.59;5161991;28;20053;-70
2022/04/04 06:37:34;;;;;;;42.80;19.90;;;;;;;1.51;61.41;99423.16;5160476;28;20158;-70
2022/04/04 06:40:26;;;;;;;39.97;18.40;;;;;;;1.21;61.17;99420.28;5162329;28;20456;-69
2022/04/04 06:43:19;;;;;;;31.42;17.50;;;;;;;1.32;61.18;99404.91;5163870;28;20065;-70
2022/04/04 06:46:11;;;;;;;36.38;17.67;;;;;;;1.27;62.71;99419.16;5160483;28;20132;-69
2022/04/04 06:49:02;;;;;;;35.53;17.95;;;;;;;1.17;61.59;99395.25;5159786;28;20046;-69
2022/04/04 06:51:52;;;;;;;36.90;17.88;;;;;;;1.50;62.62;99413.63;5172625;28;20129;-69
2022/04/04 06:54:43;;;;;;;37.08;17.65;;;;;;;1.68;61.11;99404.00;5159048;28;20447;-69
2022/04/04 06:57:33;;;;;;;37.55;17.20;;;;;;;1.75;60.95;99408.00;5165288;28;20042;-69
2022/04/04 07:00:24;;;;;;;31.08;16.85;;;;;;;2.22;58.76;99404.72;5164587;28;20041;-70
2022/04/04 07:03:14;;;;;;;30.92;16.75;;;;;;;2.16;58.94;99401.56;5160336;28;20521;-71
2022/04/04 07:06:07;;;;;;;29.77;15.50;;;;;;;2.05;59.04;99412.56;5148987;28;20421;-72
2022/04/04 07:08:57;;;;;;;28.48;16.15;;;;;;;2.67;58.81;99418.84;5159020;28;20082;-70
2022/04/04 07:11:50;;;;;;;30.35;15.05;;;;;;;3.64;56.20;99409.00;5160206;28;20062;-71
2022/04/04 07:14:40;;;;;;;21.95;10.98;;;;;;;3.94;54.60;99408.97;5161358;28;20047;-69
2022/04/04 07:17:33;;;;;;;25.42;14.13;;;;;;;4.65;52.87;99409.91;5147340;28;20061;-70
2022/04/04 07:20:23;;;;;;;23.23;14.27;;;;;;;4.58;52.36;99398.94;5160002;28;20061;-70
2022/04/04 07:23:14;;;;;;;28.52;13.70;;;;;;;5.88;50.90;99397.47;5151573;28;20204;-70
2022/04/04 07:26:04;;;;;;;26.92;13.57;;;;;;;5.96;49.40;99397.84;5165483;28;20556;-70
2022/04/04 07:28:54;;;;;;;30.55;14.18;;;;;;;5.38;50.31;99392.00;5161550;28;20156;-70
2022/04/04 07:31:45;;;;;;;26.33;13.38;;;;;;;5.62;49.19;99381.63;5160778;28;20096;-70
2022/04/04 07:34:36;;;;;;;27.25;13.20;;;;;;;5.75;49.84;99393.97;5162657;28;20065;-70
2022/04/04 07:37:26;;;;;;;23.90;12.30;;;;;;;6.34;49.24;99384.63;5161441;28;20061;-70
2022/04/04 07:40:18;;;;;;;21.85;13.13;;;;;;;7.20;48.11;99388.19;5158560;28;20053;-70
2022/04/04 07:43:08;;;;;;;24.92;12.93;;;;;;;7.25;48.01;99393.94;5148205;28;20065;-70
2022/04/04 07:45:58;;;;;;;23.85;13.65;;;;;;;7.34;47.03;99385.34;5158128;28;20112;-70
2022/04/04 07:48:50;;;;;;;20.42;11.80;;;;;;;8.03;45.16;99384.59;5149486;28;20528;-73
2022/04/04 07:51:40;;;;;;;20.70;11.00;;;;;;;7.73;46.12;99372.78;5163520;28;20102;-70
2022/04/04 07:54:30;;;;;;;20.02;12.23;;;;;;;8.58;44.13;99380.31;5164007;28;20042;-71
2022/04/04 07:57:21;;;;;;;18.98;11.98;;;;;;;9.13;43.92;99368.75;5164669;28;20064;-72
2022/04/04 08:00:21;;;;;;;22.65;11.48;;;;;;;9.28;42.17;99381.72;5167440;28;20065;-70
2022/04/04 08:03:11;;;;;;;18.98;8.82;;;;;;;10.45;38.12;99362.13;5153926;28;20058;-70
2022/04/04 08:06:02;;;;;;;19.35;9.18;;;;;;;10.84;38.16;99351.63;5167154;28;20105;-72
2022/04/04 08:08:53;;;;;;;24.10;8.63;;;;;;;10.61;38.80;99359.81;5165063;28;20049;-70
2022/04/04 08:11:43;;;;;;;17.50;7.65;;;;;;;9.88;41.29;99362.50;5163232;28;20045;-71
2022/04/04 08:14:36;;;;;;;13.75;8.90;;;;;;;11.36;36.59;99337.16;5165414;28;20177;-72
2022/04/04 08:17:26;;;;;;;16.48;9.23;;;;;;;11.43;38.22;99340.91;5163640;28;20058;-70
2022/04/04 08:20:17;;;;;;;14.85;9.13;;;;;;;11.45;37.44;99341.59;5163946;28;20054;-71
2022/04/04 08:23:08;;;;;;;16.73;9.25;;;;;;;11.32;37.64;99345.50;5164082;28;20054;-71
2022/04/04 08:25:59;;;;;;;15.23;9.88;;;;;;;10.97;37.80;99326.50;5165993;28;20053;-72
2022/04/04 08:28:50;;;;;;;13.30;8.73;;;;;;;11.41;35.27;99329.59;5164588;28;20106;-72
2022/04/04 08:31:40;;;;;;;14.15;7.35;;;;;;;10.44;37.22;99342.72;5164941;28;20128;-72
2022/04/04 08:34:31;;;;;;;11.27;6.75;;;;;;;8.98;40.20;99327.72;5153276;28;20413;-71
2022/04/04 08:37:21;;;;;;;12.15;6.82;;;;;;;10.62;35.60;99337.59;5164164;28;20050;-71
2022/04/04 08:40:14;;;;;;;10.50;6.72;;;;;;;11.09;34.83;99321.91;5171835;28;20112;-70
2022/04/04 08:43:09;;;;;;;15.27;7.00;;;;;;;10.52;36.19;99310.22;5163798;28;20563;-71
2022/04/04 08:46:02;;;;;;;13.35;6.15;;;;;;;10.95;37.31;99331.09;5166601;28;20049;-71
2022/04/04 08:48:55;;;;;;;14.23;6.78;;;;;;;9.46;35.85;99315.84;5163257;28;20124;-71
2022/04/04 08:51:48;;;;;;;8.63;6.07;;;;;;;9.40;37.38;99323.34;5166638;28;20524;-71
2022/04/04 08:54:38;;;;;;;13.27;6.32;;;;;;;10.39;35.54;99317.59;5166559;28;20132;-70
2022/04/04 08:57:28;;;;;;;9.35;6.22;;;;;;;11.40;35.71;99312.00;5159919;28;20118;-71
2022/04/04 09:00:19;;;;;;;11.45;6.65;;;;;;;11.40;35.53;99305.84;5166128;28;20065;-70
2022/04/04 09:03:10;;;;;;;15.15;6.90;;;;;;;11.02;35.60;99308.34;5151499;28;20065;-75
2022/04/04 09:06:03;;;;;;;9.80;6.68;;;;;;;11.40;33.27;99300.53;5148687;28;20050;-69
2022/04/04 09:08:55;;;;;;;8.47;6.00;;;;;;;11.79;31.74;99289.81;5167624;28;20548;-70
2022/04/04 09:12:04;;;;;;;9.98;6.03;;;;;;;11.62;34.70;99300.22;5164403;28;20432;-70
2022/04/04 09:14:57;;;;;;;12.60;6.63;;;;;;;12.73;32.25;99281.72;5163516;28;20053;-72
2022/04/04 09:17:47;;;;;;;10.05;6.03;;;;;;;11.47;33.18;99277.75;5165606;28;20147;-70
2022/04/04 09:20:50;;;;;;;9.80;6.10;;;;;;;12.14;33.82;99268.75;5168223;28;20636;-70
2022/04/04 09:23:47;;;;;;;11.18;6.82;;;;;;;12.00;33.19;99271.88;5152510;28;20062;-71
2022/04/04 09:26:43;;;;;;;8.88;6.10;;;;;;;10.73;32.29;99263.25;5161793;28;20236;-71
2022/04/04 09:29:40;;;;;;;8.73;6.40;;;;;;;11.29;33.69;99259.03;5150334;28;20533;-72
2022/04/04 09:32:37;;;;;;;9.98;6.10;;;;;;;12.52;32.46;99242.09;5162396;28;20053;-70
2022/04/04 09:35:32;;;;;;;7.63;6.05;;;;;;;13.04;30.72;99237.75;5161612;28;20687;-70
2022/04/04 09:38:23;;;;;;;8.95;6.22;;;;;;;13.00;31.33;99243.53;5166117;28;20180;-70
2022/04/04 09:41:17;;;;;;;10.43;6.03;;;;;;;11.67;33.58;99236.03;5150458;28;20093;-70
2022/04/04 09:44:11;;;;;;;8.45;6.10;;;;;;;11.77;31.73;99235.00;5156343;28;20069;-70
2022/04/04 09:47:02;;;;;;;7.70;5.40;;;;;;;11.68;33.42;99219.94;5156590;28;20412;-70
2022/04/04 09:49:52;;;;;;;8.40;6.10;;;;;;;11.41;34.66;99230.50;5159311;28;20297;-70
2022/04/04 09:52:52;;;;;;;8.02;5.70;;;;;;;9.93;36.62;99220.88;5158881;28;20552;-69
2022/04/04 09:55:45;;;;;;;9.45;6.30;;;;;;;11.91;33.27;99220.44;5161208;28;20518;-73
2022/04/04 09:58:38;;;;;;;9.98;6.00;;;;;;;12.11;34.65;99201.75;5159866;28;20524;-70
2022/04/04 10:01:32;;;;;;;9.30;6.13;;;;;;;11.67;34.42;99197.03;5143057;28;20054;-70
2022/04/04 10:04:25;;;;;;;9.68;5.55;;;;;;;10.24;34.50;99197.84;5164025;28;20500;-71
2022/04/04 10:07:19;;;;;;;7.85;5.15;;;;;;;10.94;33.91;99195.97;5161480;28;20441;-70
2022/04/04 10:10:09;;;;;;;8.02;5.35;;;;;;;10.49;34.02;99199.16;5158816;28;20221;-70
2022/04/04 10:12:59;;;;;;;7.15;5.30;;;;;;;11.50;32.31;99190.66;5161464;28;20192;-71
2022/04/04 10:15:55;;;;;;;6.72;5.03;;;;;;;9.02;35.72;99182.84;5163586;28;20758;-70
2022/04/04 10:18:46;;;;;;;6.63;4.72;;;;;;;11.69;33.98;99189.75;5172533;28;20049;-70
2022/04/04 10:21:37;;;;;;;8.82;4.43;;;;;;;10.00;32.36;99193.75;5150967;28;20535;-71
2022/04/04 10:24:28;;;;;;;7.35;4.85;;;;;;;11.29;30.55;99180.25;5160329;28;20121;-71
2022/04/04 10:27:20;;;;;;;6.13;5.00;;;;;;;11.14;32.54;99172.88;5157193;28;20096;-72
2022/04/04 10:30:11;;;;;;;8.40;4.97;;;;;;;11.80;33.86;99170.13;5161552;28;20465;-70
2022/04/04 10:33:03;;;;;;;7.63;5.05;;;;;;;11.99;33.14;99161.25;5158956;28;20099;-72
2022/04/04 10:36:05;;;;;;;8.25;5.70;;;;;;;10.44;35.20;99162.47;5147527;28;20049;-73
2022/04/04 10:38:57;;;;;;;5.55;4.82;;;;;;;11.66;33.29;99155.53;5143145;28;20157;-72
2022/04/04 10:41:47;;;;;;;7.63;5.00;;;;;;;12.28;32.84;99146.94;5157398;28;20123;-70
2022/04/04 10:44:47;;;;;;;7.93;5.20;;;;;;;9.95;33.23;99153.56;5158118;28;20053;-71
2022/04/04 10:47:40;;;;;;;7.18;5.15;;;;;;;9.98;34.79;99149.81;5157347;28;20592;-69
2022/04/04 10:50:32;;;;;;;7.28;5.40;;;;;;;10.70;35.29;99138.06;5154061;28;20180;-69
2022/04/04 10:53:57;;;;;;;8.15;5.72;;;;;;;8.98;37.41;99132.00;5158723;28;20117;-69
2022/04/04 10:56:47;;;;;;;8.23;4.90;;;;;;;10.29;36.60;99127.56;5121538;28;20046;-68
2022/04/04 10:59:37;;;;;;;9.40;5.28;;;;;;;9.80;35.95;99112.53;5140475;28;20295;-70
2022/04/04 11:02:28;;;;;;;6.18;4.72;;;;;;;9.85;35.65;99121.75;5159450;28;20100;-70
2022/04/04 11:08:32;;;;;;;10.68;5.13;;;;;;;10.13;34.91;99106.03;5160042;28;20057;-72
2022/04/04 11:11:55;;;;;;;8.38;5.00;;;;;;;8.75;38.14;99096.94;5157504;28;20508;-71
2022/04/04 11:14:53;;;;;;;9.15;5.45;;;;;;;8.55;39.05;99089.84;5157084;28;20526;-71
2022/04/04 11:17:57;;;;;;;10.02;4.75;;;;;;;9.81;36.80;99085.94;5156569;28;20065;-71
2022/04/04 11:20:50;;;;;;;10.30;5.28;;;;;;;10.91;38.26;99082.16;5157405;28;20050;-71
2022/04/04 11:23:40;;;;;;;7.85;5.30;;;;;;;10.66;37.94;99084.47;5155760;28;20054;-72
2022/04/04 11:26:31;;;;;;;6.63;4.93;;;;;;;10.84;34.47;99078.41;5142515;28;20050;-70
2022/04/04 11:29:25;;;;;;;8.95;4.88;;;;;;;11.60;36.58;99072.94;5155786;28;20054;-71
2022/04/04 11:32:23;;;;;;;15.50;5.28;;;;;;;10.81;36.63;99048.53;5159630;28;20445;-73
2022/04/04 11:35:15;;;;;;;7.53;4.80;;;;;;;10.69;37.41;99059.44;5156851;28;20061;-73
2022/04/04 11:38:11;;;;;;;6.85;5.30;;;;;;;10.89;37.68;99047.81;5158401;28;20116;-71
2022/04/04 11:41:11;;;;;;;9.07;4.68;;;;;;;11.43;36.36;99043.53;5145737;28;20054;-72
2022/04/04 11:44:02;;;;;;;5.97;4.70;;;;;;;10.76;36.21;99040.19;5159148;28;20062;-71
2022/04/04 11:47:19;;;;;;;7.68;5.10;;;;;;;11.86;38.90;99039.41;5158279;28;20046;-71
2022/04/04 11:50:09;;;;;;;7.93;4.88;;;;;;;11.20;33.79;99019.22;5156233;28;20066;-73
2022/04/04 11:53:02;;;;;;;8.93;5.28;;;;;;;11.38;36.48;99027.22;5157032;28;20069;-73
2022/04/04 11:56:02;;;;;;;5.28;4.50;;;;;;;10.90;35.04;99032.75;5154552;28;20449;-71
2022/04/04 11:58:55;;;;;;;7.20;4.72;;;;;;;10.71;37.11;99004.47;5154314;28;20043;-71
2022/04/04 12:01:46;;;;;;;8.55;5.10;;;;;;;10.74;36.59;99015.63;5157342;28;20058;-71
2022/04/04 12:04:38;;;;;;;6.53;5.00;;;;;;;11.37;36.19;98992.84;5147850;28;20057;-72
2022/04/04 12:07:31;;;;;;;11.15;5.07;;;;;;;10.05;36.36;99000.78;5155180;28;20124;-71
2022/04/04 12:10:32;;;;;;;7.88;5.40;;;;;;;10.64;37.70;99000.72;5146203;28;20084;-73
2022/04/04 12:13:23;;;;;;;7.22;5.00;;;;;;;9.20;36.87;98977.56;5151285;28;20057;-72
2022/04/04 12:16:16;;;;;;;6.25;4.63;;;;;;;9.82;37.68;98986.97;5142241;28;20074;-72
2022/04/04 12:19:09;;;;;;;6.18;4.78;;;;;;;9.70;37.57;98979.31;5157958;28;20140;-71
2022/04/04 12:21:59;;;;;;;5.63;4.40;;;;;;;9.81;36.62;98960.66;5158297;28;20069;-71
2022/04/04 12:24:55;;;;;;;9.15;5.30;;;;;;;10.41;37.04;98974.53;5143949;28;20137;-71
2022/04/04 12:27:59;;;;;;;6.55;5.30;;;;;;;9.79;37.18;98957.28;5158530;28;20049;-71
2022/04/04 12:30:50;;;;;;;12.90;5.60;;;;;;;9.79;36.18;98946.69;5160166;28;20058;-72
2022/04/04 12:33:41;;;;;;;6.30;5.10;;;;;;;9.23;37.23;98937.59;5158983;28;20309;-72
2022/04/04 12:36:38;;;;;;;13.13;5.60;;;;;;;10.24;39.89;98943.44;5160369;28;20082;-72
2022/04/04 12:39:28;;;;;;;9.55;5.10;;;;;;;9.96;38.09;98939.84;5161161;28;20057;-71
2022/04/04 12:42:18;;;;;;;8.52;5.40;;;;;;;10.11;35.97;98933.16;5152294;28;20058;-71
2022/04/04 12:45:11;;;;;;;7.47;5.40;;;;;;;10.11;38.33;98925.22;5161415;28;20051;-71
2022/04/04 12:48:07;;;;;;;10.27;4.80;;;;;;;9.65;38.17;98917.03;5151566;28;20049;-72
2022/04/04 12:50:58;;;;;;;8.15;5.55;;;;;;;9.09;38.80;98867.41;5160589;28;20142;-71
2022/04/04 12:53:49;;;;;;;7.47;4.80;;;;;;;9.08;39.84;98904.59;5164006;28;20057;-73
2022/04/04 12:56:49;;;;;;;6.10;5.07;;;;;;;9.58;38.35;98899.19;5158681;28;20062;-72
2022/04/04 12:59:58;;;;;;;6.20;4.25;;;;;;;9.36;37.65;98897.66;5153522;28;20081;-72
2022/04/04 13:02:49;;;;;;;8.32;4.78;;;;;;;9.70;37.60;98876.91;5163050;28;20487;-71
2022/04/04 13:05:46;;;;;;;12.25;4.93;;;;;;;9.57;39.09;98884.28;5160972;28;20192;-71
2022/04/04 13:08:36;;;;;;;6.13;5.30;;;;;;;8.91;37.67;98877.84;5157838;28;20065;-72
2022/04/04 13:11:29;;;;;;;6.15;5.25;;;;;;;9.23;40.16;98876.75;5157902;28;20168;-71
2022/04/04 13:14:21;;;;;;;11.18;5.55;;;;;;;9.80;38.75;98869.78;5149388;28;20065;-71
2022/04/04 13:17:11;;;;;;;7.60;5.72;;;;;;;9.87;37.60;98884.13;5160857;28;20083;-70
2022/04/04 13:20:04;;;;;;;8.40;5.18;;;;;;;10.58;36.63;98853.66;5145875;28;20062;-71
2022/04/04 13:22:55;;;;;;;8.50;5.57;;;;;;;9.71;37.59;98849.44;5161307;28;20140;-71